Time;durP1;ratioP1;P1;durP2;ratioP2;P2;SDS_P1;SDS_P2;PMS_P1;PMS_P2;Temp;Humidity;BMP_temperature;BMP_pressure;BME280_temperature;BME280_humidity;BME280_pressure;Samples;Min_cycle;Max_cycle;Signal;HPM_P1;HPM_P2
2023/05/30 00:44:01;;;;;;;;;1.00;0.00;;;;;20.60;41.66;69219.13;6331513;22;45627;-87
2023/05/30 00:46:29;;;;;;;;;0.00;0.00;;;;;20.49;41.76;69080.31;6366922;22;46107;-86
2023/05/30 00:48:56;;;;;;;;;0.00;0.00;;;;;20.64;41.91;69210.47;6339371;22;45375;-87
2023/05/30 00:51:23;;;;;;;;;1.33;1.00;;;;;20.89;41.47;69158.44;6366813;22;45542;-87
2023/05/30 00:53:48;;;;;;;;;1.00;1.00;;;;;20.64;42.08;69070.72;6339601;22;45427;-86
2023/05/30 00:56:15;;;;;;;;;1.00;1.00;;;;;20.45;41.88;69043.31;6367441;22;45975;-87
2023/05/30 00:58:41;;;;;;;;;1.00;1.00;;;;;20.62;41.95;69132.84;6339330;22;45344;-86
2023/05/30 01:01:07;;;;;;;;;3.00;1.00;;;;;20.54;41.49;69072.25;6339083;22;45297;-87
2023/05/30 01:03:34;;;;;;;;;1.00;1.00;;;;;20.38;42.01;69057.06;6339355;22;45283;-87
2023/05/30 01:06:03;;;;;;;;;0.67;0.67;;;;;20.57;41.81;69095.22;6339085;22;47342;-87
2023/05/30 01:08:28;;;;;;;;;0.67;0.67;;;;;20.66;42.04;69097.28;6338248;22;46035;-87
2023/05/30 01:11:07;;;;;;;;;0.67;0.67;;;;;20.57;41.55;69083.88;6367154;22;45667;-87
2023/05/30 01:13:52;;;;;;;;;0.00;0.00;;;;;20.53;42.24;69052.81;6371553;22;45512;-88
2023/05/30 01:16:23;;;;;;;;;2.00;1.00;;;;;20.42;42.01;69053.78;6370685;22;46179;-87
2023/05/30 01:18:58;;;;;;;;;0.00;0.00;;;;;20.41;42.16;69133.16;6371109;22;45435;-88
2023/05/30 01:21:26;;;;;;;;;0.67;0.00;;;;;20.28;41.68;69037.13;6371230;22;45385;-87
2023/05/30 01:24:15;;;;;;;;;1.00;1.00;;;;;20.59;42.00;69054.63;6343067;22;45334;-87
2023/05/30 01:27:08;;;;;;;;;1.00;1.00;;;;;20.57;41.97;69071.03;6370484;22;45405;-87
2023/05/30 01:29:37;;;;;;;;;2.33;0.00;;;;;20.45;41.90;69046.59;6342162;22;45742;-88
2023/05/30 01:32:05;;;;;;;;;3.00;0.00;;;;;20.53;41.92;69055.50;6370614;22;45476;-87
2023/05/30 01:34:31;;;;;;;;;0.00;0.00;;;;;20.48;42.52;69032.84;6371248;22;45635;-87
2023/05/30 01:36:56;;;;;;;;;1.00;0.00;;;;;20.50;41.65;69068.06;6370234;22;45358;-87
2023/05/30 01:39:21;;;;;;;;;0.00;0.00;;;;;20.15;42.12;68978.69;6371114;22;45267;-87
2023/05/30 01:42:35;;;;;;;;;0.67;0.33;;;;;20.48;41.98;69027.47;6342583;22;45414;-87
2023/05/30 01:45:18;;;;;;;;;0.00;0.00;;;;;20.44;42.16;69040.03;6216172;22;45361;-87
2023/05/30 01:48:11;;;;;;;;;0.00;0.00;;;;;20.15;42.20;69022.22;6241899;22;48076;-86
2023/05/30 01:50:44;;;;;;;;;0.00;0.00;;;;;20.40;42.66;69032.59;6234132;22;45370;-86
2023/05/30 01:53:14;;;;;;;;;1.00;1.00;;;;;20.32;42.19;69058.00;6242678;22;45374;-86
2023/05/30 01:55:42;;;;;;;;;0.00;0.00;;;;;20.15;42.35;69027.00;6242755;22;45363;-86
2023/05/30 01:58:08;;;;;;;;;2.00;1.00;;;;;20.13;42.49;69030.59;6241694;22;46593;-86
2023/05/30 02:00:34;;;;;;;;;2.00;0.33;;;;;19.98;42.16;68978.44;6241875;22;45786;-87
2023/05/30 02:03:00;;;;;;;;;1.00;1.00;;;;;20.28;42.68;69041.91;6242188;22;45700;-87
2023/05/30 02:05:25;;;;;;;;;0.00;0.00;;;;;19.48;42.76;68991.97;6242768;22;45403;-87
2023/05/30 02:07:50;;;;;;;;;0.67;0.67;;;;;19.58;42.25;69022.66;6242157;22;45432;-87
2023/05/30 02:10:16;;;;;;;;;0.00;0.00;;;;;20.11;42.44;69143.69;6241695;22;45327;-87
2023/05/30 02:12:41;;;;;;;;;0.00;0.00;;;;;20.20;42.30;69016.84;6242779;22;45644;-87
2023/05/30 02:15:07;;;;;;;;;2.00;1.00;;;;;19.94;43.00;68954.88;6242926;22;45442;-87
2023/05/30 02:17:32;;;;;;;;;0.00;0.00;;;;;19.97;42.60;68973.97;6241928;22;46652;-87
2023/05/30 02:20:05;;;;;;;;;1.00;0.00;;;;;20.08;42.76;69035.38;6356956;22;45356;-87
2023/05/30 02:22:31;;;;;;;;;1.00;0.00;;;;;20.03;42.60;69005.88;6342200;22;45417;-87
2023/05/30 02:24:57;;;;;;;;;1.00;1.00;;;;;20.06;42.97;69105.47;6368204;22;45514;-87
2023/05/30 02:27:24;;;;;;;;;1.00;1.00;;;;;19.77;43.14;68964.78;6340152;22;47283;-87
2023/05/30 02:29:49;;;;;;;;;0.00;0.00;;;;;19.97;43.13;68992.75;6339624;22;45480;-87
2023/05/30 02:32:15;;;;;;;;;2.00;0.67;;;;;20.03;42.68;69005.28;6368291;22;45353;-87
2023/05/30 02:34:40;;;;;;;;;2.00;0.67;;;;;19.60;42.96;68942.47;6340098;22;45378;-86
2023/05/30 02:37:05;;;;;;;;;0.00;0.00;;;;;19.25;42.95;68847.84;6368756;22;45445;-87
2023/05/30 02:39:32;;;;;;;;;0.33;0.33;;;;;19.76;43.19;68918.00;6340188;22;45625;-86
2023/05/30 02:41:58;;;;;;;;;0.00;0.00;;;;;19.59;43.26;68929.94;6369459;22;45424;-87
2023/05/30 02:44:23;;;;;;;;;1.33;0.00;;;;;19.83;43.07;68982.09;6369489;22;45364;-87
2023/05/30 02:46:48;;;;;;;;;0.33;0.33;;;;;19.81;43.11;68974.94;6368858;22;45369;-87
2023/05/30 02:49:14;;;;;;;;;0.00;0.00;;;;;19.64;43.58;68981.50;6368917;22;45374;-86
2023/05/30 02:51:41;;;;;;;;;1.00;1.00;;;;;19.64;43.73;68935.31;6340154;22;45271;-87
2023/05/30 02:54:06;;;;;;;;;0.67;0.67;;;;;19.56;43.34;68908.22;6369227;22;45367;-87
2023/05/30 02:56:31;;;;;;;;;1.00;1.00;;;;;19.78;43.68;68960.03;6367797;22;45483;-87
2023/05/30 02:58:59;;;;;;;;;1.33;0.00;;;;;19.45;43.70;68865.03;6367575;22;45403;-87
2023/05/30 03:01:24;;;;;;;;;2.33;0.00;;;;;19.61;43.57;68913.56;6368765;22;45692;-87
2023/05/30 03:03:50;;;;;;;;;1.00;1.00;;;;;19.41;43.31;68906.47;6368931;22;45450;-86
2023/05/30 03:06:16;;;;;;;;;0.00;0.00;;;;;19.50;43.02;68901.09;6339906;22;46301;-86
2023/05/30 03:11:13;;;;;;;;;0.00;0.00;;;;;19.74;43.14;68915.03;6365285;22;45535;-90
2023/05/30 03:13:41;;;;;;;;;2.00;1.00;;;;;19.66;43.41;68929.63;6368012;22;45334;-87
2023/05/30 03:16:06;;;;;;;;;0.00;0.00;;;;;19.69;43.40;68898.94;6366860;22;46869;-83
2023/05/30 03:18:32;;;;;;;;;0.00;0.00;;;;;19.66;43.39;68884.63;6379875;22;45263;-88
2023/05/30 03:20:57;;;;;;;;;0.00;0.00;;;;;19.45;43.42;68891.84;6381835;22;50474;-89
2023/05/30 03:23:22;;;;;;;;;0.00;0.00;;;;;19.55;43.86;68882.28;6384575;22;45070;-88
2023/05/30 03:25:47;;;;;;;;;0.00;0.00;;;;;19.59;43.33;68905.81;6383848;22;46419;-88
2023/05/30 03:28:13;;;;;;;;;0.00;0.00;;;;;19.35;43.54;68870.44;6383031;22;44965;-91
2023/05/30 03:30:38;;;;;;;;;0.33;0.33;;;;;19.56;43.78;68862.00;6355702;22;46480;-88
2023/05/30 03:33:04;;;;;;;;;0.00;0.00;;;;;19.54;43.88;68897.19;6385131;22;45052;-89
2023/05/30 03:35:29;;;;;;;;;0.00;0.00;;;;;19.51;43.56;68878.13;6384184;22;45890;-89
2023/05/30 03:37:55;;;;;;;;;1.00;1.00;;;;;19.49;43.53;68889.16;6383832;22;45019;-90
2023/05/30 03:40:20;;;;;;;;;2.33;0.33;;;;;19.42;43.86;68923.16;6383874;22;45343;-88
2023/05/30 03:42:45;;;;;;;;;0.00;0.00;;;;;19.45;43.91;68838.22;6385251;22;45233;-90
2023/05/30 03:45:11;;;;;;;;;0.00;0.00;;;;;19.43;43.53;68898.13;6383534;22;46170;-89
2023/05/30 03:47:36;;;;;;;;;0.00;0.00;;;;;19.30;43.95;68869.28;6381821;22;45205;-88
2023/05/30 03:50:02;;;;;;;;;0.67;0.00;;;;;19.31;43.71;68846.91;6382155;22;45163;-88
2023/05/30 03:52:28;;;;;;;;;1.67;0.00;;;;;19.38;43.89;68895.44;6382512;22;45184;-89
2023/05/30 03:54:53;;;;;;;;;0.00;0.00;;;;;19.28;43.95;68909.78;6384624;22;46195;-89
2023/05/30 03:57:19;;;;;;;;;0.00;0.00;;;;;19.33;44.11;68849.28;6385371;22;45027;-89
2023/05/30 03:59:45;;;;;;;;;0.00;0.00;;;;;19.32;43.75;68871.66;6383589;22;44982;-90
2023/05/30 04:02:10;;;;;;;;;1.33;1.00;;;;;19.07;44.15;68827.03;6385122;22;45179;-92
2023/05/30 04:04:36;;;;;;;;;0.00;0.00;;;;;19.13;44.02;68815.41;6383531;22;46641;-90
2023/05/30 04:07:02;;;;;;;;;0.00;0.00;;;;;18.80;43.92;68848.56;6383494;22;44989;-89
2023/05/30 04:09:27;;;;;;;;;1.00;1.00;;;;;18.89;44.15;68808.94;6383535;22;45128;-90
2023/05/30 04:11:53;;;;;;;;;0.00;0.00;;;;;18.52;43.81;68811.72;6384369;22;45022;-89
2023/05/30 04:14:18;;;;;;;;;0.67;0.00;;;;;18.55;44.27;68726.91;6383644;22;46966;-89
2023/05/30 04:16:43;;;;;;;;;0.00;0.00;;;;;18.86;44.07;68813.41;6356697;22;45335;-89
2023/05/30 04:19:10;;;;;;;;;0.67;0.33;;;;;19.02;44.01;68791.03;6384154;22;44972;-89
2023/05/30 04:21:35;;;;;;;;;0.00;0.00;;;;;18.82;44.10;68757.75;6356725;22;45154;-89
2023/05/30 04:24:01;;;;;;;;;0.00;0.00;;;;;19.10;43.76;68894.94;6384198;22;46084;-90
2023/05/30 04:26:26;;;;;;;;;3.00;0.00;;;;;19.02;44.12;68817.84;6355990;22;45136;-89
2023/05/30 04:28:56;;;;;;;;;0.00;0.00;;;;;18.23;44.10;68713.03;6382180;22;44977;-89
2023/05/30 04:31:23;;;;;;;;;0.00;0.00;;;;;18.46;43.86;68726.34;6384006;22;45106;-88
2023/05/30 04:33:50;;;;;;;;;1.00;1.00;;;;;19.08;44.16;68828.25;6381667;22;45112;-89
2023/05/30 04:36:19;;;;;;;;;0.67;0.67;;;;;18.61;44.18;68784.28;6384287;22;45073;-93
2023/05/30 04:38:46;;;;;;;;;0.00;0.00;;;;;18.49;43.92;68724.53;6357493;22;45015;-88
2023/05/30 04:41:18;;;;;;;;;0.00;0.00;;;;;18.45;43.87;68754.59;6356129;22;45247;-89
2023/05/30 04:43:44;;;;;;;;;0.00;0.00;;;;;18.55;44.25;68726.91;6382301;22;46616;-88
2023/05/30 04:46:10;;;;;;;;;0.00;0.00;;;;;18.47;44.38;68760.25;6376665;22;45475;-90
2023/05/30 04:48:36;;;;;;;;;0.00;0.00;;;;;18.86;44.54;68802.13;6385555;22;45092;-92
2023/05/30 04:51:02;;;;;;;;;1.00;1.00;;;;;19.02;43.93;68842.56;6385914;22;44975;-88
2023/05/30 04:53:28;;;;;;;;;0.00;0.00;;;;;19.00;44.00;68815.47;6385439;22;46261;-86
2023/05/30 04:55:54;;;;;;;;;0.00;0.00;;;;;18.49;43.85;68735.25;6385711;22;44964;-89
2023/05/30 04:58:19;;;;;;;;;0.00;0.00;;;;;18.89;44.19;68813.72;6357527;22;44999;-91
2023/05/30 05:00:45;;;;;;;;;0.67;0.00;;;;;18.98;43.90;68814.25;6386256;22;44883;-90
2023/05/30 05:03:10;;;;;;;;;0.00;0.00;;;;;18.77;43.96;68843.50;6384837;22;46133;-88
2023/05/30 05:05:35;;;;;;;;;0.00;0.00;;;;;18.96;44.28;68859.53;6383716;22;44882;-88
2023/05/30 05:08:01;;;;;;;;;0.00;0.00;;;;;18.83;44.43;68793.19;6385496;22;45030;-89
2023/05/30 05:10:27;;;;;;;;;0.67;0.67;;;;;18.89;44.50;68819.66;6384137;22;45016;-87
2023/05/30 05:12:52;;;;;;;;;1.00;1.00;;;;;18.92;43.94;68769.06;6384102;22;46133;-88
2023/05/30 05:15:17;;;;;;;;;0.67;0.00;;;;;18.91;44.05;68832.75;6384139;22;45052;-89
2023/05/30 05:17:43;;;;;;;;;2.00;0.00;;;;;18.87;44.36;68808.66;6384163;22;45198;-90
2023/05/30 05:20:09;;;;;;;;;1.00;1.00;;;;;18.75;44.15;68835.75;6384020;22;44974;-88
2023/05/30 05:22:35;;;;;;;;;0.00;0.00;;;;;18.91;44.12;68826.81;6384274;22;46074;-91
2023/05/30 05:25:01;;;;;;;;;0.00;0.00;;;;;18.65;43.77;68764.94;6384113;22;45224;-89
2023/05/30 05:27:29;;;;;;;;;2.00;0.00;;;;;18.76;44.12;68810.19;6355415;22;45071;-91
2023/05/30 05:30:08;;;;;;;;;1.00;1.00;;;;;18.61;43.72;68767.63;6385145;22;45084;-89
2023/05/30 05:35:11;;;;;;;;;1.00;1.00;;;;;18.58;44.39;68782.84;6382101;22;71898;-94
2023/05/30 05:37:36;;;;;;;;;0.00;0.00;;;;;18.43;44.05;68707.31;6387687;22;44900;-94
2023/05/30 05:40:05;;;;;;;;;0.00;0.00;;;;;18.94;44.13;68833.03;6359088;22;45091;-86
2023/05/30 05:42:34;;;;;;;;;0.00;0.00;;;;;18.26;44.09;68826.94;6384685;22;45304;-91
2023/05/30 05:45:00;;;;;;;;;0.00;0.00;;;;;18.93;44.16;68815.78;6384727;22;44849;-87
2023/05/30 05:47:26;;;;;;;;;0.00;0.00;;;;;18.81;43.92;68820.28;6383860;22;44863;-89
2023/05/30 05:49:53;;;;;;;;;0.00;0.00;;;;;18.97;44.46;68793.75;6384203;22;44973;-89
2023/05/30 05:52:20;;;;;;;;;1.00;1.00;;;;;18.69;43.77;68755.72;6384782;22;45317;-88
2023/05/30 05:54:46;;;;;;;;;0.00;0.00;;;;;18.53;44.20;68742.69;6384729;22;44885;-85
2023/05/30 05:57:11;;;;;;;;;0.00;0.00;;;;;18.98;44.07;68787.47;6385048;22;44933;-88
2023/05/30 05:59:37;;;;;;;;;0.67;0.67;;;;;18.59;43.71;68773.91;6386290;22;44804;-89
2023/05/30 06:02:02;;;;;;;;;0.00;0.00;;;;;19.02;44.03;68821.13;6374114;22;45382;-85
2023/05/30 06:04:27;;;;;;;;;0.00;0.00;;;;;19.03;44.13;68808.88;6366785;22;45356;-89
2023/05/30 06:06:53;;;;;;;;;10.67;10.67;;;;;18.68;43.58;68786.66;6340375;22;45369;-89
2023/05/30 06:09:18;;;;;;;;;6.33;6.33;;;;;19.01;44.10;68773.75;6369094;22;45546;-89
2023/05/30 06:11:44;;;;;;;;;2.33;1.00;;;;;18.82;43.94;68773.84;6364891;22;46277;-92
2023/05/30 06:14:09;;;;;;;;;0.33;0.33;;;;;19.08;44.28;68763.91;6340834;22;45419;-92
2023/05/30 06:16:34;;;;;;;;;0.00;0.00;;;;;19.05;44.44;68792.50;6341660;22;45531;-92
2023/05/30 06:19:00;;;;;;;;;1.00;1.00;;;;;18.75;44.16;68774.16;6341761;22;45586;-93
2023/05/30 06:21:25;;;;;;;;;0.67;0.67;;;;;19.07;44.36;68886.00;6369241;22;45798;-92
2023/05/30 06:23:50;;;;;;;;;0.00;0.00;;;;;18.91;44.04;68779.16;6369963;22;57904;-92
2023/05/30 06:26:16;;;;;;;;;0.00;0.00;;;;;18.77;44.33;68805.41;6369629;22;45351;-91
2023/05/30 06:28:41;;;;;;;;;0.00;0.00;;;;;18.90;43.81;68767.25;6369952;22;45468;-94
2023/05/30 06:31:06;;;;;;;;;2.00;1.00;;;;;19.17;44.02;68803.47;6340940;22;46959;-91
2023/05/30 06:33:32;;;;;;;;;0.00;0.00;;;;;19.06;44.49;68852.06;6369098;22;45392;-88
2023/05/30 06:35:57;;;;;;;;;0.00;0.00;;;;;19.07;44.10;68797.56;6370011;22;45395;-93
2023/05/30 06:38:23;;;;;;;;;0.00;0.00;;;;;19.10;44.13;68905.66;6342130;22;45381;-88
2023/05/30 06:40:49;;;;;;;;;0.00;0.00;;;;;19.15;44.07;68873.47;6369746;22;46290;-89
2023/05/30 06:43:14;;;;;;;;;2.00;0.00;;;;;19.29;44.73;68790.94;6369181;22;45345;-92
2023/05/30 06:45:39;;;;;;;;;0.00;0.00;;;;;19.19;44.74;68835.94;6368313;22;48622;-90
2023/05/30 06:48:05;;;;;;;;;0.00;0.00;;;;;19.03;44.52;68854.44;6340993;22;45489;-92
2023/05/30 06:50:30;;;;;;;;;1.00;1.00;;;;;19.05;44.49;68773.75;6340772;22;46128;-92
2023/05/30 06:52:56;;;;;;;;;0.00;0.00;;;;;19.43;44.72;68774.75;6367669;22;45612;-92
2023/05/30 06:55:21;;;;;;;;;0.00;0.00;;;;;19.47;45.08;68760.13;6368189;22;45464;-91
2023/05/30 06:57:48;;;;;;;;;1.00;0.00;;;;;19.52;44.94;68800.94;6368839;22;45876;-91
2023/05/30 07:00:15;;;;;;;;;0.00;0.00;;;;;19.51;44.68;68781.56;6367435;22;46924;-91
2023/05/30 07:02:40;;;;;;;;;0.00;0.00;;;;;19.30;44.83;68748.63;6368440;22;45667;-94
2023/05/30 07:05:06;;;;;;;;;0.00;0.00;;;;;19.38;44.78;68833.78;6369322;22;45706;-95
2023/05/30 07:07:31;;;;;;;;;0.67;0.00;;;;;19.55;44.36;68788.41;6368738;22;45528;-91
2023/05/30 07:09:57;;;;;;;;;2.00;0.33;;;;;19.56;44.75;68784.81;6367937;22;45788;-91
2023/05/30 07:12:22;;;;;;;;;1.00;1.00;;;;;19.71;44.73;68767.16;6368005;22;45339;-90
2023/05/30 07:14:47;;;;;;;;;0.00;0.00;;;;;19.73;44.78;68854.81;6340924;22;45287;-94
2023/05/30 07:17:13;;;;;;;;;0.00;0.00;;;;;19.76;44.62;68813.34;6341277;22;45588;-92
2023/05/30 07:19:39;;;;;;;;;0.00;0.00;;;;;19.49;44.13;68767.88;6367958;22;45551;-92
2023/05/30 07:22:05;;;;;;;;;1.67;0.00;;;;;19.83;44.23;68821.06;6368622;22;45468;-93
2023/05/30 07:24:30;;;;;;;;;0.00;0.00;;;;;19.84;44.35;68835.66;6368719;22;45369;-93
2023/05/30 07:26:56;;;;;;;;;0.00;0.00;;;;;19.89;43.96;68809.41;6369302;22;45465;-93
2023/05/30 07:29:21;;;;;;;;;3.00;0.67;;;;;19.93;44.48;68822.19;6368337;22;46602;-90
2023/05/30 07:31:46;;;;;;;;;0.00;0.00;;;;;19.71;44.53;68806.81;6368708;22;45328;-93
2023/05/30 07:34:12;;;;;;;;;0.00;0.00;;;;;19.75;44.08;68900.13;6369398;22;45364;-92
2023/05/30 07:36:37;;;;;;;;;0.00;0.00;;;;;19.89;44.06;68910.78;6368984;22;45358;-91
2023/05/30 07:39:02;;;;;;;;;0.00;0.00;;;;;20.08;43.96;68860.88;6367295;22;62923;-91
2023/05/30 07:41:28;;;;;;;;;0.00;0.00;;;;;19.85;44.56;68820.16;6369253;22;51638;-93
2023/05/30 07:43:53;;;;;;;;;0.00;0.00;;;;;19.87;44.17;68817.75;6371967;22;45286;-92
2023/05/30 07:46:18;;;;;;;;;0.33;0.33;;;;;19.78;43.91;68842.56;6369441;22;45504;-91
2023/05/30 07:48:44;;;;;;;;;0.33;0.00;;;;;20.12;44.56;68782.41;6364601;22;46915;-90
2023/05/30 07:51:10;;;;;;;;;0.00;0.00;;;;;20.26;43.87;68862.88;6366469;22;45288;-89
2023/05/30 07:53:36;;;;;;;;;0.00;0.00;;;;;20.15;44.15;68790.75;6368051;22;45649;-92
2023/05/30 07:56:02;;;;;;;;;0.00;0.00;;;;;19.99;44.40;68818.59;6340250;22;45289;-91
2023/05/30 07:58:28;;;;;;;;;1.67;0.00;;;;;20.10;43.95;68825.66;6367452;22;45405;-89
2023/05/30 08:00:53;;;;;;;;;0.00;0.00;;;;;20.23;43.96;68854.53;6367532;22;45456;-87
2023/05/30 08:03:19;;;;;;;;;3.33;1.33;;;;;20.34;43.82;68885.78;6366917;22;45402;-83
2023/05/30 08:05:46;;;;;;;;;59.25;44.50;;;;;20.07;44.57;68875.81;6366853;22;45495;-85
2023/05/30 08:08:12;;;;;;;;;3.67;3.67;;;;;20.49;45.06;68774.06;6365991;22;47206;-84
2023/05/30 08:10:38;;;;;;;;;1.67;1.00;;;;;20.52;44.72;68817.31;6366649;22;45406;-86
2023/05/30 08:13:03;;;;;;;;;1.67;1.33;;;;;20.46;43.93;68810.78;6367434;22;45354;-88
2023/05/30 08:15:31;;;;;;;;;2.00;2.00;;;;;20.61;44.20;68801.75;6368365;22;45286;-86
2023/05/30 08:17:56;;;;;;;;;1.00;1.00;;;;;20.66;44.35;68858.13;6366699;22;46033;-85
2023/05/30 08:20:22;;;;;;;;;1.33;0.00;;;;;20.70;44.13;68867.66;6366295;22;45532;-86
2023/05/30 08:22:55;;;;;;;;;1.00;1.00;;;;;20.50;44.23;68834.34;6365075;22;45401;-86
2023/05/30 08:25:23;;;;;;;;;0.67;0.67;;;;;20.64;43.91;68917.56;6338731;22;45431;-92
2023/05/30 08:27:50;;;;;;;;;0.00;0.00;;;;;20.77;43.83;68862.56;6367960;22;46280;-87
2023/05/30 08:30:15;;;;;;;;;1.00;1.00;;;;;20.90;43.87;68813.44;6367623;22;45378;-90
2023/05/30 08:32:40;;;;;;;;;1.00;0.00;;;;;20.94;44.27;68893.47;6368624;22;45396;-90
2023/05/30 08:35:09;;;;;;;;;1.67;0.00;;;;;20.99;44.15;68808.00;6369969;22;45460;-92
2023/05/30 08:37:34;;;;;;;;;0.00;0.00;;;;;21.03;44.07;68866.50;6373827;22;45460;-91
2023/05/30 08:39:59;;;;;;;;;0.00;0.00;;;;;21.00;43.80;68822.03;6371478;22;45344;-88
2023/05/30 08:42:25;;;;;;;;;1.00;1.00;;;;;21.13;43.84;68853.56;6344038;22;45401;-86
2023/05/30 08:44:51;;;;;;;;;0.00;0.00;;;;;21.17;44.09;68861.00;6342775;22;45764;-87
2023/05/30 08:47:17;;;;;;;;;0.00;0.00;;;;;20.94;44.00;68860.63;6367420;22;45893;-90
2023/05/30 08:49:45;;;;;;;;;1.33;0.00;;;;;21.29;44.08;68904.25;6369169;22;45642;-86
2023/05/30 08:52:13;;;;;;;;;1.00;1.00;;;;;21.36;43.56;68882.38;6367696;22;45390;-88
2023/05/30 08:55:03;;;;;;;;;0.00;0.00;;;;;21.43;43.87;68955.84;6368336;22;45688;-90
2023/05/30 08:57:42;;;;;;;;;0.00;0.00;;;;;21.52;43.90;68936.38;6367898;22;46267;-92
2023/05/30 09:00:11;;;;;;;;;0.67;0.33;;;;;21.41;43.51;68840.50;6367729;22;45539;-86
2023/05/30 09:02:37;;;;;;;;;0.00;0.00;;;;;21.67;43.67;68905.72;6367629;22;45401;-88
2023/05/30 09:05:04;;;;;;;;;1.67;0.00;;;;;21.86;43.78;68876.50;6367855;22;45388;-84
2023/05/30 09:07:31;;;;;;;;;1.00;0.00;;;;;22.15;43.83;68912.44;6367178;22;45999;-89
2023/05/30 09:09:58;;;;;;;;;2.67;0.00;;;;;22.96;43.28;68825.50;6367150;22;45325;-90
2023/05/30 09:12:26;;;;;;;;;0.00;0.00;;;;;23.83;42.60;68863.53;6367365;22;45330;-90
2023/05/30 09:14:51;;;;;;;;;0.33;0.33;;;;;24.73;42.07;68854.78;6367845;22;45449;-87
2023/05/30 09:17:17;;;;;;;;;0.33;0.33;;;;;25.51;40.95;68860.19;6367491;22;45498;-93
2023/05/30 09:19:45;;;;;;;;;0.67;0.67;;;;;26.42;40.68;68990.47;6366913;22;45497;-92
2023/05/30 09:22:10;;;;;;;;;0.00;0.00;;;;;27.25;39.83;68985.94;6368373;22;45361;-93
2023/05/30 09:25:03;;;;;;;;;1.00;1.00;;;;;28.29;39.39;69301.91;6367046;22;45422;-94
2023/05/30 09:27:32;;;;;;;;;0.00;0.00;;;;;28.93;38.09;69525.88;6367331;22;45396;-92
2023/05/30 09:30:05;;;;;;;;;0.00;0.00;;;;;29.20;37.34;69843.50;6367158;22;45315;-87
2023/05/30 09:32:34;;;;;;;;;0.00;0.00;;;;;-145.03;100.00;62373.16;6376667;22;45377;-89
2023/05/30 09:35:04;;;;;;;;;2.00;1.00;;;;;30.44;35.39;70465.91;6367506;22;45510;-87
2023/05/30 09:37:43;;;;;;;;;0.00;0.00;;;;;30.59;35.19;70564.69;6368685;22;47547;-89
2023/05/30 09:40:17;;;;;;;;;0.00;0.00;;;;;30.65;34.91;70580.13;6368452;22;45362;-88
2023/05/30 09:42:44;;;;;;;;;0.75;0.50;;;;;31.09;34.67;70760.44;6337868;22;45386;-90
2023/05/30 09:45:20;;;;;;;;;0.25;0.00;;;;;31.45;33.74;70871.13;6340788;22;45430;-90
2023/05/30 09:47:47;;;;;;;;;0.25;0.25;;;;;31.35;34.34;70974.44;6359863;22;45606;-91
2023/05/30 09:50:14;;;;;;;;;0.00;0.00;;;;;32.09;33.92;71199.19;6338745;22;45418;-93
2023/05/30 09:52:41;;;;;;;;;0.00;0.00;;;;;32.61;33.42;71312.59;6368379;22;45521;-89
2023/05/30 09:55:13;;;;;;;;;0.00;0.00;;;;;32.84;32.77;71492.84;6368804;22;45795;-90
2023/05/30 09:57:40;;;;;;;;;0.75;0.00;;;;;33.38;31.70;71623.91;6366741;22;45470;-90
2023/05/30 10:00:11;;;;;;;;;0.75;0.00;;;;;33.70;31.89;71708.41;6367358;22;45394;-88
2023/05/30 10:02:39;;;;;;;;;0.00;0.00;;;;;33.90;31.71;71844.78;6338287;22;45358;-88
2023/05/30 10:05:05;;;;;;;;;0.00;0.00;;;;;34.19;31.58;71857.69;6367923;22;45474;-87
2023/05/30 10:07:31;;;;;;;;;0.25;0.25;;;;;34.39;30.93;71892.53;6339382;22;47046;-88
2023/05/30 10:09:57;;;;;;;;;1.00;1.00;;;;;34.59;30.23;71919.13;6368803;22;45623;-88
2023/05/30 10:12:24;;;;;;;;;1.00;1.00;;;;;34.41;30.05;71869.63;6378668;22;45398;-89
2023/05/30 10:14:50;;;;;;;;;1.00;0.00;;;;;34.90;30.28;71961.34;6369094;22;45538;-92
2023/05/30 10:17:18;;;;;;;;;2.00;0.00;;;;;35.32;29.99;72143.66;6366843;22;46432;-86
2023/05/30 10:20:06;;;;;;;;;0.00;0.00;;;;;35.69;29.46;72050.75;6367714;22;45693;-94
2023/05/30 10:22:42;;;;;;;;;0.33;0.33;;;;;35.72;29.20;71954.69;6367867;22;45315;-86
2023/05/30 10:25:08;;;;;;;;;0.00;0.00;;;;;36.06;28.57;71879.94;6367448;22;45288;-91
2023/05/30 10:27:48;;;;;;;;;0.00;0.00;;;;;36.07;28.34;71841.97;6366937;22;46900;-88
2023/05/30 10:30:21;;;;;;;;;1.75;0.00;;;;;36.30;27.63;71726.13;6367783;22;45481;-94
2023/05/30 10:32:53;;;;;;;;;3.00;0.00;;;;;36.37;28.77;71933.13;6367945;22;45375;-91
2023/05/30 10:35:20;;;;;;;;;0.00;0.00;;;;;36.60;28.41;72053.78;6368086;22;45563;-90
2023/05/30 10:37:47;;;;;;;;;0.00;0.00;;;;;36.79;28.23;71933.59;6368162;22;46130;-91
2023/05/30 10:40:43;;;;;;;;;0.00;0.00;;;;;36.83;27.04;71675.81;6368283;22;45436;-89
2023/05/30 10:43:27;;;;;;;;;0.33;0.33;;;;;36.85;26.76;71546.44;6367410;22;45337;-91
2023/05/30 10:46:12;;;;;;;;;2.00;0.00;;;;;37.16;27.11;71704.97;6367269;22;45352;-88
2023/05/30 10:48:43;;;;;;;;;0.75;0.75;;;;;37.25;27.78;71867.13;6366098;22;47022;-87
2023/05/30 10:51:13;;;;;;;;;0.00;0.00;;;;;37.18;27.19;71646.06;6365892;22;45436;-90
2023/05/30 10:53:41;;;;;;;;;1.00;1.00;;;;;37.28;26.85;71603.03;6367528;22;45361;-89
2023/05/30 10:56:34;;;;;;;;;0.00;0.00;;;;;37.28;26.22;71384.41;6367866;22;45348;-91
2023/05/30 10:59:10;;;;;;;;;0.00;0.00;;;;;37.07;26.45;71343.59;6368123;22;46942;-87
2023/05/30 11:01:56;;;;;;;;;0.00;0.00;;;;;37.22;26.11;71128.75;6368201;22;45713;-89
2023/05/30 11:04:28;;;;;;;;;0.67;0.67;;;;;37.13;25.87;70980.50;6328225;22;45698;-88
2023/05/30 11:06:55;;;;;;;;;0.00;0.00;;;;;37.34;25.54;70983.75;6336441;22;45419;-91
2023/05/30 11:09:21;;;;;;;;;0.67;0.67;;;;;37.37;26.30;71113.75;6335914;22;47275;-89
2023/05/30 11:11:57;;;;;;;;;0.00;0.00;;;;;37.11;26.35;70909.13;6337272;22;45812;-86
2023/05/30 11:14:39;;;;;;;;;0.00;0.00;;;;;37.36;26.40;71113.13;6336741;22;45454;-92
2023/05/30 11:17:12;;;;;;;;;1.00;0.00;;;;;37.45;26.39;71214.50;6337097;22;45565;-90
2023/05/30 11:19:40;;;;;;;;;0.00;0.00;;;;;37.45;25.79;70899.78;6336853;22;46385;-90
2023/05/30 11:22:22;;;;;;;;;0.00;0.00;;;;;37.41;25.79;70828.72;6336496;22;45355;-90
2023/05/30 11:25:16;;;;;;;;;0.25;0.00;;;;;37.31;26.37;70932.63;6339043;22;45304;-96
2023/05/30 11:28:11;;;;;;;;;0.00;0.00;;;;;37.31;26.09;71002.22;6341794;22;45524;-91
2023/05/30 11:30:42;;;;;;;;;2.00;1.00;;;;;37.16;25.53;70647.53;6324553;22;45466;-96
2023/05/30 11:33:12;;;;;;;;;1.00;0.00;;;;;37.07;26.42;70841.47;6336058;22;45453;-91
2023/05/30 11:35:38;;;;;;;;;0.33;0.33;;;;;36.88;25.82;70749.66;6335811;22;45727;-90
2023/05/30 11:38:04;;;;;;;;;1.00;1.00;;;;;36.65;26.19;70836.25;6336638;22;45591;-95
2023/05/30 11:40:29;;;;;;;;;1.00;1.00;;;;;36.43;27.31;70864.84;6335978;22;47211;-91
2023/05/30 11:42:56;;;;;;;;;0.00;0.00;;;;;36.21;27.25;70786.63;6336062;22;45352;-91
2023/05/30 11:45:26;;;;;;;;;0.75;0.50;;;;;35.70;27.51;70708.38;6308646;22;45790;-94
2023/05/30 11:47:51;;;;;;;;;0.00;0.00;;;;;35.42;27.11;70738.00;6337291;22;45493;-92
2023/05/30 11:50:21;;;;;;;;;0.00;0.00;;;;;35.21;27.27;70652.81;6337010;22;47270;-90
2023/05/30 11:52:46;;;;;;;;;2.25;0.50;;;;;34.84;27.90;70610.13;6337161;22;45318;-92
2023/05/30 11:55:12;;;;;;;;;1.00;1.00;;;;;34.44;27.97;70524.19;6337284;22;45518;-93
2023/05/30 11:57:38;;;;;;;;;0.00;0.00;;;;;34.03;27.71;70427.31;6337731;22;45346;-86
2023/05/30 12:00:11;;;;;;;;;0.00;0.00;;;;;33.56;28.62;70553.19;6336514;22;46077;-94
2023/05/30 12:02:37;;;;;;;;;1.00;1.00;;;;;33.14;28.82;70509.41;6336330;22;45720;-88
2023/05/30 12:05:06;;;;;;;;;2.00;0.00;;;;;32.94;29.02;70543.50;6337593;22;45710;-93
2023/05/30 12:07:32;;;;;;;;;0.00;0.00;;;;;32.74;29.45;70528.28;6336673;22;45295;-91
2023/05/30 12:10:00;;;;;;;;;0.00;0.00;;;;;32.17;29.30;70480.06;6308555;22;47224;-95
2023/05/30 12:12:26;;;;;;;;;1.00;1.00;;;;;32.14;30.37;70542.75;6337215;22;45282;-91
2023/05/30 12:14:52;;;;;;;;;0.00;0.00;;;;;32.10;30.26;70520.94;6307859;22;45439;-89
2023/05/30 12:17:21;;;;;;;;;0.00;0.00;;;;;31.92;30.22;70484.03;6337583;22;45429;-94
2023/05/30 12:19:50;;;;;;;;;0.25;0.25;;;;;31.75;31.12;70548.41;6337305;22;46917;-96
2023/05/30 12:22:17;;;;;;;;;0.00;0.00;;;;;31.40;30.44;70547.84;6309669;22;45336;-95
2023/05/30 12:24:42;;;;;;;;;0.00;0.00;;;;;31.31;30.76;70518.50;6338587;22;45382;-96
2023/05/30 12:27:19;;;;;;;;;0.00;0.00;;;;;31.30;30.83;70451.69;6337311;22;45405;-95